Time;durP1;ratioP1;P1;durP2;ratioP2;P2;SDS_P1;SDS_P2;PMS_P1;PMS_P2;Temp;Humidity;BMP_temperature;BMP_pressure;BME280_temperature;BME280_humidity;BME280_pressure;Samples;Min_cycle;Max_cycle;Signal;HPM_P1;HPM_P2
2023/05/15 00:02:01;;;;;;;5.50;4.40;;;;;;;18.46;60.23;102023.14;106986;1272;23283;-49
2023/05/15 00:04:28;;;;;;;5.80;4.10;;;;;;;18.45;60.33;102015.95;105510;1273;1016127;-55
2023/05/15 00:06:55;;;;;;;4.00;3.70;;;;;;;18.45;60.44;102015.94;106707;1270;22531;-49
2023/05/15 00:09:22;;;;;;;4.40;3.70;;;;;;;18.44;60.70;102008.58;106637;1275;24768;-50
2023/05/15 00:11:50;;;;;;;5.40;3.90;;;;;;;18.45;60.67;102011.40;105851;1275;1003225;-47
2023/05/15 00:14:17;;;;;;;4.60;3.80;;;;;;;18.43;60.42;102009.50;106903;1275;25453;-51
2023/05/15 00:16:44;;;;;;;4.60;4.00;;;;;;;18.42;60.33;102007.78;106683;1268;24383;-47
2023/05/15 00:19:11;;;;;;;3.70;3.40;;;;;;;18.41;60.39;102004.46;106610;1276;25345;-49
2023/05/15 00:21:38;;;;;;;4.00;3.50;;;;;;;18.40;60.77;102002.06;105197;1271;1015792;-52
2023/05/15 00:24:06;;;;;;;4.50;4.10;;;;;;;18.40;60.95;102002.23;105573;1271;1015504;-52
2023/05/15 00:26:33;;;;;;;5.10;3.60;;;;;;;18.39;61.05;102004.00;106888;1270;22641;-47
2023/05/15 00:29:00;;;;;;;5.90;4.30;;;;;;;18.38;61.06;101999.11;107017;1269;22602;-48
2023/05/15 00:31:27;;;;;;;6.30;4.10;;;;;;;18.38;61.01;101995.63;106800;1273;24254;-52
2023/05/15 00:33:54;;;;;;;3.90;3.50;;;;;;;18.37;60.82;101995.83;106734;1273;25220;-47
2023/05/15 00:36:23;;;;;;;4.20;3.80;;;;;;;18.36;60.68;101997.63;106702;1269;24249;-50
2023/05/15 00:38:50;;;;;;;4.80;4.10;;;;;;;18.34;60.56;101998.23;106834;1273;22538;-47
2023/05/15 00:41:17;;;;;;;4.60;4.10;;;;;;;18.32;60.60;101995.98;106952;1269;24518;-50
2023/05/15 00:43:45;;;;;;;4.80;4.40;;;;;;;18.30;60.66;101986.24;106850;1270;24317;-48
2023/05/15 00:46:13;;;;;;;5.90;4.10;;;;;;;18.28;60.77;101980.30;106886;1271;25465;-49
2023/05/15 00:48:42;;;;;;;4.70;4.30;;;;;;;18.27;60.80;101976.48;107097;1269;22528;-48
2023/05/15 00:51:09;;;;;;;6.40;4.10;;;;;;;18.26;60.75;101981.10;106835;1267;24288;-49
2023/05/15 00:53:37;;;;;;;4.40;3.60;;;;;;;18.24;60.48;101988.71;106778;1275;24240;-47
2023/05/15 00:56:05;;;;;;;4.60;3.60;;;;;;;18.22;60.12;102000.02;106142;1273;1003614;-47
2023/05/15 00:58:32;;;;;;;6.10;4.10;;;;;;;18.19;59.93;102002.23;106569;1273;23120;-51
2023/05/15 01:00:59;;;;;;;5.50;4.40;;;;;;;18.16;59.86;101997.06;106472;1275;25631;-55
2023/05/15 01:03:27;;;;;;;5.20;3.60;;;;;;;18.14;59.79;101997.85;106375;1276;22523;-50
2023/05/15 01:05:54;;;;;;;4.40;3.60;;;;;;;18.11;59.47;102002.33;106704;1275;22534;-55
2023/05/15 01:08:37;;;;;;;4.30;3.90;;;;;;;18.08;59.31;102005.06;106264;1273;480021;-50
2023/05/15 01:11:06;;;;;;;3.80;3.40;;;;;;;18.06;59.05;102010.77;106503;1278;22525;-48
2023/05/15 01:13:33;;;;;;;3.90;3.40;;;;;;;18.03;59.02;102011.74;106707;1273;24681;-50
2023/05/15 01:16:00;;;;;;;4.60;3.90;;;;;;;18.01;59.10;102017.59;106665;1273;24276;-47
2023/05/15 01:18:31;;;;;;;4.20;3.90;;;;;;;17.99;59.43;102012.39;106396;1273;24284;-49
2023/05/15 01:21:04;;;;;;;5.80;4.20;;;;;;;17.98;59.79;102017.36;106827;1272;22522;-50
2023/05/15 01:23:40;;;;;;;5.70;4.50;;;;;;;17.96;60.05;102022.48;106610;1273;23145;-48
2023/05/15 01:26:23;;;;;;;4.90;4.20;;;;;;;17.95;60.20;102027.27;106727;1273;22599;-54
2023/05/15 01:29:03;;;;;;;6.20;4.60;;;;;;;17.93;60.46;102029.45;106774;1273;24285;-50
2023/05/15 01:31:31;;;;;;;5.50;4.00;;;;;;;17.90;60.50;102031.63;106806;1269;24789;-48
2023/05/15 01:34:01;;;;;;;7.20;4.40;;;;;;;17.88;60.64;102027.65;106848;1269;24489;-57
2023/05/15 01:36:42;;;;;;;4.70;4.10;;;;;;;17.86;60.72;102018.94;106824;1274;22574;-48
2023/05/15 01:39:09;;;;;;;4.70;4.30;;;;;;;17.84;60.74;102017.79;106812;1273;24268;-47
2023/05/15 01:42:06;;;;;;;4.40;4.00;;;;;;;17.82;60.67;102017.84;106619;1270;24301;-48
2023/05/15 01:44:40;;;;;;;5.80;4.30;;;;;;;17.80;60.66;102015.27;106865;1269;22515;-46
2023/05/15 01:47:19;;;;;;;4.60;4.20;;;;;;;17.78;60.60;102010.77;106821;1269;24396;-50
2023/05/15 01:49:47;;;;;;;4.90;4.50;;;;;;;17.75;60.72;102007.88;106821;1272;25426;-51
2023/05/15 01:52:28;;;;;;;4.10;3.80;;;;;;;17.72;60.77;102004.46;106819;1273;25467;-48
2023/05/15 01:54:55;;;;;;;4.70;4.30;;;;;;;17.70;60.61;102006.30;106910;1269;22530;-47
2023/05/15 01:57:22;;;;;;;4.00;3.60;;;;;;;17.67;60.52;102001.83;106748;1270;24243;-51
2023/05/15 01:59:50;;;;;;;5.30;4.20;;;;;;;17.64;60.34;102000.51;106813;1276;22662;-48
2023/05/15 02:02:17;;;;;;;4.60;3.70;;;;;;;17.61;60.17;102000.77;106599;1272;24247;-53
2023/05/15 02:04:45;;;;;;;4.90;4.40;;;;;;;17.58;60.22;101998.61;106556;1273;24369;-48
2023/05/15 02:07:12;;;;;;;4.80;4.40;;;;;;;17.55;60.25;102003.26;106545;1257;24290;-51
2023/05/15 02:09:39;;;;;;;4.80;4.00;;;;;;;17.53;60.25;102002.96;106773;1273;22528;-48
2023/05/15 02:12:06;;;;;;;4.20;3.70;;;;;;;17.49;60.20;102005.53;106726;1270;24474;-49
2023/05/15 02:14:33;;;;;;;4.00;3.70;;;;;;;17.50;59.95;102009.73;106359;1280;24320;-47
2023/05/15 02:17:00;;;;;;;5.20;4.40;;;;;;;17.50;59.90;102011.84;106247;1260;24281;-50
2023/05/15 02:19:28;;;;;;;4.80;4.40;;;;;;;17.49;59.92;102012.03;106309;1274;25546;-52
2023/05/15 02:21:55;;;;;;;5.70;5.10;;;;;;;17.48;60.00;102015.20;106384;1275;22524;-48
2023/05/15 02:24:22;;;;;;;5.50;4.50;;;;;;;17.47;60.29;102015.94;106387;1276;22534;-51
2023/05/15 02:26:58;;;;;;;5.40;4.90;;;;;;;17.47;60.44;102019.44;106366;1274;22536;-48
2023/05/15 02:29:33;;;;;;;5.20;4.70;;;;;;;17.46;60.59;102019.63;106411;1276;25245;-48
2023/05/15 02:32:25;;;;;;;6.40;5.80;;;;;;;17.46;60.83;102018.75;106202;1267;22808;-47
2023/05/15 02:35:21;;;;;;;6.30;5.80;;;;;;;17.46;60.99;102020.18;106646;1273;22659;-51
2023/05/15 02:37:51;;;;;;;6.10;5.50;;;;;;;17.46;61.23;102025.61;106623;1278;22540;-48
2023/05/15 02:40:18;;;;;;;5.30;4.80;;;;;;;17.45;61.38;102027.39;106705;1273;24253;-50
2023/05/15 02:42:46;;;;;;;5.10;4.70;;;;;;;17.45;61.65;102026.17;106639;1273;25242;-49
2023/05/15 02:45:13;;;;;;;4.80;4.40;;;;;;;17.45;61.83;102020.37;106529;1273;26493;-52
2023/05/15 02:47:40;;;;;;;4.50;4.10;;;;;;;17.45;61.84;102016.16;106634;1277;24346;-49
2023/05/15 02:50:07;;;;;;;5.00;4.60;;;;;;;17.46;61.93;102014.39;106621;1273;25331;-52
2023/05/15 02:52:35;;;;;;;5.00;4.60;;;;;;;17.46;62.01;102015.07;106886;1273;22524;-48
2023/05/15 02:55:03;;;;;;;5.90;4.70;;;;;;;17.46;62.04;102017.00;106921;1269;25529;-51
2023/05/15 02:57:30;;;;;;;7.40;5.00;;;;;;;17.47;62.15;102013.65;106701;1273;22547;-48
2023/05/15 02:59:57;;;;;;;5.40;5.00;;;;;;;17.48;62.28;102010.98;106806;1270;22532;-54
2023/05/15 03:02:24;;;;;;;5.10;4.70;;;;;;;17.49;62.39;102012.05;106728;1270;25230;-47
2023/05/15 03:04:51;;;;;;;5.70;5.20;;;;;;;17.50;62.57;102010.77;106778;1268;22524;-49
2023/05/15 03:07:18;;;;;;;4.70;4.30;;;;;;;17.48;62.78;102008.54;106799;1270;22524;-49
2023/05/15 03:09:45;;;;;;;5.20;4.80;;;;;;;17.47;63.22;102008.40;106888;1270;25348;-56
2023/05/15 03:12:12;;;;;;;5.10;4.60;;;;;;;17.46;63.59;102007.35;106839;1274;22522;-49
2023/05/15 03:14:40;;;;;;;5.70;5.20;;;;;;;17.48;63.98;102007.48;106758;1270;22729;-49
2023/05/15 03:17:07;;;;;;;5.40;4.90;;;;;;;17.52;64.37;102009.30;106865;1270;24356;-52
2023/05/15 03:19:34;;;;;;;5.70;5.20;;;;;;;17.58;64.63;102007.71;106842;1268;22525;-48
2023/05/15 03:22:02;;;;;;;6.60;6.00;;;;;;;17.64;64.87;102009.45;106796;1269;25529;-50
2023/05/15 03:24:29;;;;;;;6.10;5.60;;;;;;;17.71;65.15;102009.39;106784;1270;25334;-55
2023/05/15 03:26:56;;;;;;;5.20;4.70;;;;;;;17.80;65.43;102009.64;106894;1269;22522;-49
2023/05/15 03:29:23;;;;;;;5.10;4.70;;;;;;;17.91;65.68;102012.65;107014;1269;25487;-49
2023/05/15 03:31:50;;;;;;;4.20;3.90;;;;;;;18.04;66.21;102012.40;106850;1272;24193;-49
2023/05/15 03:34:17;;;;;;;5.60;4.40;;;;;;;18.24;66.86;102017.16;106913;1270;25350;-52
2023/05/15 03:36:44;;;;;;;4.20;3.80;;;;;;;18.50;67.16;102014.70;106871;1270;24312;-50
2023/05/15 03:39:11;;;;;;;3.90;3.60;;;;;;;18.79;66.58;102012.98;106806;1253;22529;-52
2023/05/15 03:41:39;;;;;;;3.80;3.50;;;;;;;19.05;65.83;102012.56;106895;1271;24376;-51
2023/05/15 03:44:06;;;;;;;3.10;2.90;;;;;;;19.22;64.88;102011.90;107041;1269;24265;-48
2023/05/15 03:46:33;;;;;;;3.20;3.00;;;;;;;19.35;64.36;102013.02;106940;1270;22527;-49
2023/05/15 03:49:01;;;;;;;3.80;3.50;;;;;;;19.45;63.94;102011.92;106796;1270;22527;-51
2023/05/15 03:51:28;;;;;;;3.50;3.30;;;;;;;19.54;63.70;102006.52;106731;1270;24298;-54
2023/05/15 03:53:56;;;;;;;3.00;2.80;;;;;;;19.61;63.58;101998.49;106718;1270;22537;-48
2023/05/15 03:56:24;;;;;;;3.30;3.10;;;;;;;19.66;63.41;101989.63;106718;1273;22524;-52
2023/05/15 03:58:51;;;;;;;3.20;2.90;;;;;;;19.72;63.57;101988.19;106850;1270;22543;-48
2023/05/15 04:01:19;;;;;;;3.60;3.30;;;;;;;19.76;63.59;101985.88;106414;1256;22516;-51
2023/05/15 04:03:46;;;;;;;3.60;3.30;;;;;;;19.81;63.52;101983.92;106283;1277;24259;-48
2023/05/15 04:06:14;;;;;;;4.20;3.90;;;;;;;19.85;63.39;101982.89;106734;1271;24579;-52
2023/05/15 04:08:41;;;;;;;5.00;4.50;;;;;;;19.88;63.56;101982.21;106782;1270;24468;-49
2023/05/15 04:11:09;;;;;;;5.00;4.60;;;;;;;19.92;63.68;101984.70;106736;1270;24241;-50
2023/05/15 04:13:36;;;;;;;4.60;4.20;;;;;;;19.96;63.83;101988.92;106657;1278;22533;-53
2023/05/15 04:16:04;;;;;;;5.10;4.40;;;;;;;19.99;64.02;101992.88;106683;1270;22554;-50
2023/05/15 04:18:31;;;;;;;5.30;4.90;;;;;;;20.02;64.19;101990.29;106709;1270;22654;-49
2023/05/15 04:20:58;;;;;;;4.70;4.30;;;;;;;20.04;64.34;101984.91;106729;1271;22558;-54
2023/05/15 04:23:25;;;;;;;5.20;4.70;;;;;;;20.08;64.39;101981.74;106694;1270;22576;-49
2023/05/15 04:25:53;;;;;;;4.80;4.40;;;;;;;20.12;64.26;101978.59;106832;1254;22680;-49
2023/05/15 04:28:21;;;;;;;4.40;4.00;;;;;;;20.12;64.52;101979.46;106963;1270;24268;-56
2023/05/15 04:30:48;;;;;;;4.40;4.00;;;;;;;20.14;64.55;101982.70;106922;1267;24257;-51
2023/05/15 04:33:15;;;;;;;4.60;4.20;;;;;;;20.09;64.86;101984.52;106816;1273;22578;-54
2023/05/15 04:35:42;;;;;;;4.40;4.00;;;;;;;20.09;65.20;101981.52;106816;1271;23852;-54
2023/05/15 04:38:09;;;;;;;5.80;4.30;;;;;;;20.17;64.95;101979.79;107040;1269;25645;-48
2023/05/15 04:40:37;;;;;;;4.80;3.90;;;;;;;20.28;64.50;101980.19;106840;1271;22541;-53
2023/05/15 04:43:04;;;;;;;4.10;3.70;;;;;;;20.36;64.36;101980.03;106767;1276;22641;-49
2023/05/15 04:45:32;;;;;;;4.60;4.20;;;;;;;20.39;64.40;101980.61;107008;1260;22519;-51
2023/05/15 04:47:59;;;;;;;4.80;4.10;;;;;;;20.44;64.41;101982.36;107049;1260;22527;-50
2023/05/15 04:50:26;;;;;;;5.20;4.60;;;;;;;20.48;64.41;101977.39;106791;1268;22521;-51
2023/05/15 04:52:53;;;;;;;5.70;4.10;;;;;;;20.55;64.19;101972.69;106979;1269;24339;-51
2023/05/15 04:55:20;;;;;;;4.10;3.80;;;;;;;20.61;63.94;101970.64;106799;1269;24254;-57
2023/05/15 04:57:48;;;;;;;4.90;4.20;;;;;;;20.66;63.86;101972.91;106063;1271;1003731;-51
2023/05/15 05:00:15;;;;;;;4.80;4.40;;;;;;;20.69;63.73;101969.39;106706;1273;24371;-50
2023/05/15 05:02:42;;;;;;;4.60;4.10;;;;;;;20.72;63.58;101970.30;106846;1269;24259;-52
2023/05/15 05:05:10;;;;;;;4.90;3.90;;;;;;;20.75;63.54;101972.98;106116;1269;1003020;-48
2023/05/15 05:07:37;;;;;;;4.60;4.20;;;;;;;20.81;63.48;101981.04;106948;1269;22549;-53
2023/05/15 05:10:05;;;;;;;4.40;4.00;;;;;;;20.86;63.35;101981.85;106837;1273;22987;-54
2023/05/15 05:12:32;;;;;;;4.10;3.80;;;;;;;20.93;63.07;101980.11;106926;1269;24263;-51
2023/05/15 05:14:59;;;;;;;4.00;3.70;;;;;;;21.01;62.87;101979.95;107016;1268;22527;-48
2023/05/15 05:17:27;;;;;;;4.40;3.80;;;;;;;21.10;62.71;101979.58;106821;1268;22720;-51
2023/05/15 05:19:54;;;;;;;4.20;3.50;;;;;;;21.22;62.40;101980.96;106798;1269;22533;-48
2023/05/15 05:22:21;;;;;;;5.50;3.80;;;;;;;21.36;62.07;101979.39;106812;1257;25303;-54
2023/05/15 05:24:48;;;;;;;4.70;3.60;;;;;;;21.57;61.86;101980.50;106781;1268;26211;-56
2023/05/15 05:27:15;;;;;;;3.80;3.40;;;;;;;21.88;61.32;101986.25;106742;1270;22527;-51
2023/05/15 05:29:43;;;;;;;3.60;3.30;;;;;;;22.23;60.17;101986.97;106773;1261;24226;-52
2023/05/15 05:32:10;;;;;;;3.60;3.20;;;;;;;22.60;59.26;101987.85;106839;1268;22524;-54
2023/05/15 05:34:37;;;;;;;3.20;3.00;;;;;;;23.03;58.13;101984.86;106680;1268;25237;-51
2023/05/15 05:37:05;;;;;;;3.10;2.80;;;;;;;23.49;56.83;101982.67;107110;1268;24389;-52
2023/05/15 05:39:32;;;;;;;3.50;3.10;;;;;;;23.96;55.58;101977.98;106910;1267;22772;-54
2023/05/15 05:41:59;;;;;;;3.70;3.20;;;;;;;24.41;53.96;101979.80;106734;1275;22527;-52
2023/05/15 05:44:26;;;;;;;3.50;3.20;;;;;;;24.75;52.71;101980.35;106884;1269;22642;-50
2023/05/15 05:46:53;;;;;;;3.70;3.20;;;;;;;25.00;51.82;101973.66;106973;1269;24276;-52
2023/05/15 05:49:20;;;;;;;3.40;2.80;;;;;;;25.17;50.75;101971.89;106836;1268;22625;-49
2023/05/15 05:51:47;;;;;;;3.50;3.20;;;;;;;25.23;50.15;101970.95;106883;1269;24510;-48
2023/05/15 05:54:16;;;;;;;2.90;2.70;;;;;;;25.25;49.89;101964.23;106998;1253;26076;-55
2023/05/15 05:56:44;;;;;;;3.30;3.00;;;;;;;25.30;49.68;101963.20;106759;1269;24286;-48
2023/05/15 05:59:11;;;;;;;3.50;3.20;;;;;;;25.37;49.27;101965.62;106805;1269;22609;-49
2023/05/15 06:01:38;;;;;;;3.10;2.80;;;;;;;25.41;49.17;101968.02;106801;1269;25470;-51
2023/05/15 06:04:06;;;;;;;3.30;3.00;;;;;;;25.45;48.86;101973.44;106404;1275;22521;-50
2023/05/15 06:06:34;;;;;;;3.70;2.90;;;;;;;25.51;48.82;101973.22;106585;1268;24266;-48
2023/05/15 06:09:02;;;;;;;3.70;2.60;;;;;;;25.59;48.53;101976.40;106732;1273;24253;-50
2023/05/15 06:11:30;;;;;;;3.10;2.80;;;;;;;25.67;48.26;101979.80;107071;1269;22517;-49
2023/05/15 06:13:57;;;;;;;3.10;2.80;;;;;;;25.73;47.67;101980.28;106856;1269;25581;-52
2023/05/15 06:16:24;;;;;;;3.10;2.70;;;;;;;25.78;47.52;101983.54;106831;1268;24259;-49
2023/05/15 06:18:51;;;;;;;3.30;3.00;;;;;;;25.77;47.28;101990.84;106807;1271;22519;-48
2023/05/15 06:21:21;;;;;;;3.50;2.70;;;;;;;25.72;47.01;101992.96;106834;1269;22514;-51
2023/05/15 06:23:48;;;;;;;3.50;2.70;;;;;;;25.65;46.97;101998.02;106865;1267;26491;-49
2023/05/15 06:26:15;;;;;;;5.10;2.90;;;;;;;25.54;46.75;101999.68;106863;1259;25693;-48
2023/05/15 06:28:42;;;;;;;3.50;3.20;;;;;;;25.35;46.91;101998.08;106983;1272;24370;-53
2023/05/15 06:31:09;;;;;;;3.70;3.10;;;;;;;25.15;47.27;101991.89;106788;1272;24364;-53
2023/05/15 06:33:36;;;;;;;2.90;2.60;;;;;;;25.00;47.47;101987.33;106830;1268;22596;-50
2023/05/15 06:36:04;;;;;;;2.60;2.40;;;;;;;24.90;47.94;101985.64;106780;1268;24383;-49
2023/05/15 06:38:31;;;;;;;3.00;2.60;;;;;;;24.88;48.17;101987.20;106821;1268;24390;-52
2023/05/15 06:40:58;;;;;;;2.90;2.70;;;;;;;24.96;48.11;101989.36;106879;1268;22525;-50
2023/05/15 06:43:25;;;;;;;4.50;2.30;;;;;;;25.08;47.80;101985.22;106814;1268;22527;-48
2023/05/15 06:45:53;;;;;;;3.10;2.80;;;;;;;25.23;47.01;101984.40;107055;1269;24248;-50
2023/05/15 06:48:20;;;;;;;3.70;2.60;;;;;;;25.38;46.57;101987.21;106789;1269;24372;-53
2023/05/15 06:50:47;;;;;;;3.20;2.90;;;;;;;25.51;46.71;101982.97;106999;1252;22663;-51
2023/05/15 06:53:16;;;;;;;2.90;2.60;;;;;;;25.66;46.38;101985.94;106848;1268;22525;-47
2023/05/15 06:55:43;;;;;;;3.10;2.80;;;;;;;25.76;45.89;101985.80;106929;1268;22534;-48
2023/05/15 06:58:10;;;;;;;2.90;2.70;;;;;;;25.84;45.68;101985.45;106834;1269;22519;-49
2023/05/15 07:00:38;;;;;;;3.50;2.40;;;;;;;25.94;45.44;101983.92;106799;1269;24780;-51
2023/05/15 07:03:05;;;;;;;2.60;2.40;;;;;;;26.10;44.73;101980.88;106751;1269;22633;-50
2023/05/15 07:05:32;;;;;;;3.60;3.10;;;;;;;26.31;44.56;101978.53;106984;1272;22548;-54
2023/05/15 07:07:59;;;;;;;2.50;2.30;;;;;;;26.55;43.64;101971.92;106964;1270;24215;-51
2023/05/15 07:10:26;;;;;;;2.20;2.10;;;;;;;26.73;42.69;101971.55;107097;1269;24242;-50
2023/05/15 07:12:54;;;;;;;3.90;2.40;;;;;;;26.86;42.61;101973.14;106907;1269;22618;-55
2023/05/15 07:15:21;;;;;;;4.90;2.60;;;;;;;27.03;41.60;101977.59;106851;1268;24795;-51
2023/05/15 07:17:48;;;;;;;2.10;2.00;;;;;;;27.20;41.05;101980.19;106843;1269;22767;-54
2023/05/15 07:20:15;;;;;;;2.30;2.10;;;;;;;27.40;40.91;101977.92;106964;1268;22628;-49
2023/05/15 07:22:43;;;;;;;2.60;2.30;;;;;;;27.58;40.46;101975.00;106836;1268;24283;-52
2023/05/15 07:25:23;;;;;;;2.70;2.40;;;;;;;27.74;39.87;101971.83;106912;1268;22530;-52
2023/05/15 07:27:51;;;;;;;2.70;2.50;;;;;;;27.90;39.78;101973.65;106789;1268;22523;-51
2023/05/15 07:30:18;;;;;;;2.70;2.50;;;;;;;28.07;39.40;101970.09;106762;1273;23127;-50
2023/05/15 07:32:45;;;;;;;2.50;2.10;;;;;;;28.18;38.79;101972.81;107064;1268;24275;-49
2023/05/15 07:35:13;;;;;;;5.20;2.40;;;;;;;28.19;38.57;101974.64;107212;1273;22523;-53
2023/05/15 07:37:40;;;;;;;4.90;2.30;;;;;;;28.15;38.51;101979.81;107246;1268;22530;-49
2023/05/15 07:40:08;;;;;;;3.50;2.40;;;;;;;28.04;38.90;101980.64;106685;1265;22527;-51
2023/05/15 07:42:35;;;;;;;3.10;2.30;;;;;;;27.89;39.14;101985.83;106944;1268;24282;-48
2023/05/15 07:45:02;;;;;;;4.60;2.70;;;;;;;27.73;39.33;101989.73;106796;1275;23151;-53
2023/05/15 07:47:30;;;;;;;2.60;2.40;;;;;;;27.60;39.74;101993.26;107374;1268;22516;-53
2023/05/15 07:49:57;;;;;;;2.60;2.30;;;;;;;27.43;39.57;101999.43;106940;1275;25373;-54
2023/05/15 07:52:24;;;;;;;4.60;2.40;;;;;;;27.27;38.85;102003.93;107272;1268;22512;-48
2023/05/15 07:54:51;;;;;;;3.00;2.60;;;;;;;27.11;38.66;101998.33;106929;1268;22990;-48
2023/05/15 07:57:18;;;;;;;4.20;2.00;;;;;;;26.98;38.37;101999.08;106843;1262;24376;-54
2023/05/15 07:59:45;;;;;;;2.60;2.40;;;;;;;26.84;38.72;101996.20;106888;1268;22635;-50
2023/05/15 08:02:13;;;;;;;2.70;2.50;;;;;;;26.71;38.56;101995.85;106944;1268;24256;-48
2023/05/15 08:04:40;;;;;;;2.10;1.90;;;;;;;26.60;38.50;101990.08;107091;1268;22593;-48
2023/05/15 08:07:07;;;;;;;2.60;2.10;;;;;;;26.50;38.56;101982.76;106866;1268;22574;-54
2023/05/15 08:09:34;;;;;;;2.80;2.30;;;;;;;26.39;38.08;101977.79;106797;1273;24353;-49
2023/05/15 08:12:35;;;;;;;3.30;2.40;;;;;;;26.28;37.94;101977.17;106841;1268;24409;-51
2023/05/15 08:15:03;;;;;;;3.90;2.30;;;;;;;26.13;38.25;101977.15;106302;1276;22630;-51
2023/05/15 08:17:30;;;;;;;3.50;1.80;;;;;;;26.01;38.38;101975.05;106345;1278;22523;-48
2023/05/15 08:19:57;;;;;;;2.60;2.10;;;;;;;25.90;38.91;101979.52;106334;1275;22544;-54
2023/05/15 08:22:24;;;;;;;2.60;2.00;;;;;;;25.83;39.17;101977.31;106429;1275;22596;-48
2023/05/15 08:24:51;;;;;;;2.90;2.50;;;;;;;25.78;38.68;101975.69;106303;1280;24282;-50
2023/05/15 08:27:18;;;;;;;5.20;2.30;;;;;;;25.74;38.64;101973.12;106406;1275;22534;-52
2023/05/15 08:29:46;;;;;;;2.70;2.20;;;;;;;25.69;38.39;101973.60;106330;1278;24396;-47
2023/05/15 08:32:13;;;;;;;3.10;2.20;;;;;;;25.65;38.83;101974.05;106360;1275;22547;-52
2023/05/15 08:34:40;;;;;;;2.80;2.00;;;;;;;25.62;38.68;101972.48;106376;1276;24378;-50
2023/05/15 08:37:07;;;;;;;2.40;2.20;;;;;;;25.59;38.64;101979.09;106419;1275;25531;-52
2023/05/15 08:39:35;;;;;;;3.20;2.40;;;;;;;25.57;39.00;101979.74;106287;1275;22624;-47
2023/05/15 08:42:07;;;;;;;2.80;2.50;;;;;;;25.57;39.32;101981.02;106354;1279;22536;-50
2023/05/15 08:44:35;;;;;;;3.80;2.20;;;;;;;25.58;39.22;101988.58;106396;1276;22544;-52
2023/05/15 08:47:03;;;;;;;3.30;2.40;;;;;;;25.61;38.94;101994.27;106408;1275;24460;-51
2023/05/15 08:49:49;;;;;;;2.40;2.00;;;;;;;25.61;38.64;101992.45;106454;1276;22532;-50
2023/05/15 08:52:16;;;;;;;3.60;2.10;;;;;;;25.59;38.56;101998.61;106888;1269;22591;-48
2023/05/15 08:54:44;;;;;;;2.10;1.90;;;;;;;25.55;38.52;101995.86;106669;1268;25637;-48
2023/05/15 08:57:14;;;;;;;3.20;2.60;;;;;;;25.50;38.60;101994.75;106815;1269;22755;-50
2023/05/15 08:59:41;;;;;;;5.40;2.50;;;;;;;25.46;38.66;101994.67;106599;1269;24268;-47
2023/05/15 09:02:08;;;;;;;3.00;2.30;;;;;;;25.42;38.41;101992.82;106658;1269;26087;-51
2023/05/15 09:04:35;;;;;;;3.00;2.00;;;;;;;25.40;37.97;101993.30;106593;1271;25431;-50
2023/05/15 09:07:02;;;;;;;2.40;2.10;;;;;;;25.38;38.13;101996.11;106647;1268;26273;-49
2023/05/15 09:09:31;;;;;;;3.10;2.10;;;;;;;25.36;38.48;101997.82;106780;1269;22527;-49
2023/05/15 09:12:01;;;;;;;5.40;2.00;;;;;;;25.36;38.48;101999.19;106762;1269;24285;-50
2023/05/15 09:14:28;;;;;;;3.60;2.10;;;;;;;25.36;38.46;101998.69;106841;1269;22546;-51
2023/05/15 09:16:55;;;;;;;3.10;2.20;;;;;;;25.35;38.77;101999.61;106810;1268;25397;-48
2023/05/15 09:19:22;;;;;;;3.30;2.10;;;;;;;25.36;38.69;102001.70;106845;1268;25355;-51
2023/05/15 09:21:50;;;;;;;2.50;2.30;;;;;;;25.36;38.38;101994.27;106811;1268;24369;-48
2023/05/15 09:24:24;;;;;;;4.60;2.60;;;;;;;25.33;38.31;101983.60;106773;1269;23898;-51
2023/05/15 09:27:05;;;;;;;2.50;2.10;;;;;;;25.29;38.91;101980.48;107040;1268;22998;-53
2023/05/15 09:29:33;;;;;;;4.90;2.40;;;;;;;25.26;38.41;101978.59;106832;1269;22531;-51
2023/05/15 09:32:08;;;;;;;2.20;2.10;;;;;;;25.23;38.73;101981.41;106831;1269;22574;-55
2023/05/15 09:34:38;;;;;;;2.90;1.80;;;;;;;25.22;39.00;101981.99;106836;1269;22547;-55
2023/05/15 09:37:06;;;;;;;2.60;2.10;;;;;;;25.21;39.13;101987.92;106812;1256;25373;-47
2023/05/15 09:39:40;;;;;;;2.50;2.30;;;;;;;25.20;39.47;101989.58;106895;1268;25842;-47
2023/05/15 09:42:08;;;;;;;3.80;2.30;;;;;;;25.20;39.79;101983.77;106866;1268;24390;-51
2023/05/15 09:44:41;;;;;;;3.60;2.30;;;;;;;25.20;39.47;101972.20;106889;1268;23319;-47
2023/05/15 09:47:12;;;;;;;4.30;2.40;;;;;;;25.20;38.73;101971.88;106881;1270;22538;-48
2023/05/15 09:49:42;;;;;;;;;;;;;;;25.17;38.53;101972.41;106834;1274;22608;-50
2023/05/15 09:52:09;;;;;;;4.60;2.10;;;;;;;25.14;38.57;101971.66;106939;1269;24229;-48
2023/05/15 09:54:37;;;;;;;3.00;2.30;;;;;;;25.12;38.76;101972.36;106822;1268;22519;-52
2023/05/15 09:57:12;;;;;;;2.50;2.30;;;;;;;25.10;39.00;101972.30;106861;1268;22523;-48
2023/05/15 09:59:46;;;;;;;3.50;2.50;;;;;;;25.10;39.56;101969.48;107080;1269;26692;-54
2023/05/15 10:02:30;;;;;;;2.70;2.20;;;;;;;25.10;39.32;101971.05;106748;1271;25316;-57
2023/05/15 10:04:58;;;;;;;3.00;2.20;;;;;;;25.11;39.33;101968.54;106944;1268;22514;-54
2023/05/15 10:07:34;;;;;;;3.10;2.40;;;;;;;25.11;39.48;101967.27;106886;1268;22599;-50
2023/05/15 10:10:03;;;;;;;2.80;2.40;;;;;;;25.11;39.51;101968.16;106847;1268;22529;-57
2023/05/15 10:12:31;;;;;;;2.50;2.10;;;;;;;25.11;39.41;101962.67;106788;1275;24296;-53
2023/05/15 10:14:59;;;;;;;3.10;2.60;;;;;;;25.11;39.19;101966.73;107007;1251;22764;-51
2023/05/15 10:17:27;;;;;;;4.30;2.40;;;;;;;25.11;39.13;101965.33;106886;1268;22527;-51
2023/05/15 10:19:54;;;;;;;4.40;2.40;;;;;;;25.10;38.87;101960.02;106935;1268;22535;-48
2023/05/15 10:22:27;;;;;;;3.30;2.30;;;;;;;25.10;38.70;101962.17;106809;1269;22495;-53
2023/05/15 10:25:09;;;;;;;3.20;2.20;;;;;;;25.09;38.89;101958.72;106982;1269;25383;-48
2023/05/15 10:27:36;;;;;;;5.90;2.70;;;;;;;25.08;39.26;101958.39;106182;1269;1003793;-51
2023/05/15 10:30:04;;;;;;;2.80;2.60;;;;;;;25.09;39.08;101962.08;106929;1269;22593;-52
2023/05/15 10:32:32;;;;;;;3.00;2.30;;;;;;;25.09;38.52;101954.05;106878;1269;22756;-48
2023/05/15 10:34:59;;;;;;;2.70;2.50;;;;;;;25.09;38.88;101956.56;106952;1268;22642;-52
2023/05/15 10:37:26;;;;;;;2.40;2.20;;;;;;;25.08;38.79;101958.02;110380;1275;22370;-51
2023/05/15 10:39:54;;;;;;;4.70;2.20;;;;;;;25.09;38.58;101960.30;110255;1271;22380;-48
2023/05/15 10:42:26;;;;;;;2.30;2.10;;;;;;;25.09;38.46;101959.21;110349;1271;22390;-50
2023/05/15 10:44:58;;;;;;;2.30;2.00;;;;;;;25.10;38.41;101957.24;110237;1275;23191;-48
2023/05/15 10:47:26;;;;;;;2.40;2.20;;;;;;;25.10;38.29;101956.86;110147;1275;22304;-47
2023/05/15 10:49:53;;;;;;;2.20;2.00;;;;;;;25.11;38.35;101956.99;110484;1268;22370;-46
2023/05/15 10:52:20;;;;;;;2.50;2.30;;;;;;;25.12;38.26;101953.73;110471;1269;22492;-46
2023/05/15 10:54:47;;;;;;;2.50;2.10;;;;;;;25.14;38.14;101954.67;110520;1268;22193;-50
2023/05/15 10:57:14;;;;;;;2.90;2.30;;;;;;;25.15;37.85;101952.06;110263;1275;22413;-46
2023/05/15 10:59:42;;;;;;;3.80;2.20;;;;;;;25.19;37.50;101949.02;110245;1271;22405;-48
2023/05/15 11:02:22;;;;;;;3.20;2.10;;;;;;;25.22;37.18;101941.20;110200;1272;22156;-48
2023/05/15 11:04:56;;;;;;;3.60;2.50;;;;;;;25.24;37.26;101938.20;110439;1275;22248;-46
2023/05/15 11:07:23;;;;;;;3.00;2.00;;;;;;;25.27;37.27;101941.76;110307;1271;23046;-46
2023/05/15 11:09:54;;;;;;;3.10;2.20;;;;;;;25.28;37.22;101943.42;110475;1275;23078;-50
2023/05/15 11:12:21;;;;;;;2.60;2.20;;;;;;;25.31;37.46;101946.27;110460;1275;22839;-46
2023/05/15 11:14:54;;;;;;;3.10;2.20;;;;;;;25.34;37.14;101950.50;110501;1268;22388;-46
2023/05/15 11:17:22;;;;;;;3.50;2.60;;;;;;;25.38;37.04;101951.48;110484;1268;22400;-46
2023/05/15 11:19:49;;;;;;;2.20;2.00;;;;;;;25.42;36.63;101947.19;110514;1275;22150;-46
2023/05/15 11:22:17;;;;;;;4.80;2.30;;;;;;;25.45;36.55;101946.98;110462;1275;22811;-48
2023/05/15 11:25:04;;;;;;;3.10;2.20;;;;;;;25.45;36.15;101939.14;110460;1273;22277;-46